Time,TemperatureF,DewpointF,PressureIn,WindDirection,WindDirectionDegrees,WindSpeedMPH,WindSpeedGustMPH,Humidity,HourlyPrecipIn,Conditions,Clouds,dailyrainin,SoftwareType,DateUTC
2013-05-31 00:04:00,51.4,46.1,29.97,NE,38,0.0,2.0,82,0.00,,---,0.00,VWS V14.01,2013-05-31 07:04:00,
2013-05-31 00:09:00,51.3,46.3,29.97,WSW,257,2.0,3.0,83,0.00,,---,0.00,VWS V14.01,2013-05-31 07:09:00,
2013-05-31 00:14:00,51.1,46.1,29.97,WSW,257,0.0,3.0,83,0.00,,---,0.00,VWS V14.01,2013-05-31 07:14:00,
2013-05-31 00:19:00,51.0,46.0,29.97,SW,236,0.0,3.0,83,0.00,,---,0.00,VWS V14.01,2013-05-31 07:19:00,
2013-05-31 00:24:00,51.1,46.1,29.97,WNW,290,0.0,3.0,83,0.00,,---,0.00,VWS V14.01,2013-05-31 07:24:00,
2013-05-31 00:29:00,51.1,46.1,29.97,WNW,290,2.0,3.0,83,0.00,,---,0.00,VWS V14.01,2013-05-31 07:29:00,
2013-05-31 00:34:00,51.3,46.3,29.97,WNW,290,0.0,0.0,83,0.00,,---,0.00,VWS V14.01,2013-05-31 07:34:00,
2013-05-31 00:39:00,51.3,46.3,29.97,WNW,290,0.0,0.0,83,0.00,,---,0.00,VWS V14.01,2013-05-31 07:39:00,
2013-05-31 00:44:00,51.1,46.1,29.97,WNW,290,0.0,0.0,83,0.00,,---,0.00,VWS V14.01,2013-05-31 07:44:00,
2013-05-31 00:49:00,51.0,46.0,29.97,WNW,290,0.0,0.0,83,0.00,,---,0.00,VWS V14.01,2013-05-31 07:49:00,
2013-05-31 00:54:00,51.0,46.0,29.97,WNW,290,0.0,1.0,83,0.00,,---,0.00,VWS V14.01,2013-05-31 07:54:00,
2013-05-31 00:59:00,50.7,45.7,29.97,WNW,290,0.0,1.0,83,0.00,,---,0.00,VWS V14.01,2013-05-31 07:59:00,
2013-05-31 01:04:00,50.2,45.6,29.96,WNW,290,0.0,0.0,84,0.00,,---,0.00,VWS V14.01,2013-05-31 08:04:00,
2013-05-31 01:09:00,49.9,45.6,29.96,WNW,290,0.0,0.0,85,0.00,,---,0.00,VWS V14.01,2013-05-31 08:09:00,
2013-05-31 01:14:00,49.6,45.3,29.96,WNW,290,0.0,0.0,85,0.00,,---,0.00,VWS V14.01,2013-05-31 08:14:00,
2013-05-31 01:20:00,49.5,45.5,29.96,WNW,290,0.0,0.0,86,0.00,,---,0.00,VWS V14.01,2013-05-31 08:20:00,
2013-05-31 01:25:00,49.4,45.4,29.96,WNW,290,0.0,0.0,86,0.00,,---,0.00,VWS V14.01,2013-05-31 08:25:00,
2013-05-31 01:30:00,49.2,45.2,29.96,WNW,290,0.0,0.0,86,0.00,,---,0.00,VWS V14.01,2013-05-31 08:30:00,
2013-05-31 01:35:00,49.1,45.1,29.95,WNW,290,0.0,0.0,86,0.00,,---,0.00,VWS V14.01,2013-05-31 08:35:00,
2013-05-31 01:40:00,48.9,45.2,29.95,WNW,290,0.0,0.0,87,0.00,,---,0.00,VWS V14.01,2013-05-31 08:40:00,
2013-05-31 01:45:00,48.8,45.1,29.95,WNW,290,0.0,0.0,87,0.00,,---,0.00,VWS V14.01,2013-05-31 08:45:00,
2013-05-31 01:50:00,48.8,45.1,29.94,WNW,290,0.0,0.0,87,0.00,,---,0.00,VWS V14.01,2013-05-31 08:50:00,
2013-05-31 01:55:00,48.6,45.2,29.94,WNW,290,0.0,0.0,88,0.00,,---,0.00,VWS V14.01,2013-05-31 08:55:00,
2013-05-31 02:00:00,48.6,45.2,29.94,WNW,290,0.0,0.0,88,0.00,,---,0.00,VWS V14.01,2013-05-31 09:00:00,
2013-05-31 02:05:00,48.6,45.2,29.94,WNW,290,0.0,0.0,88,0.00,,---,0.00,VWS V14.01,2013-05-31 09:05:00,
2013-05-31 02:10:00,48.5,44.8,29.94,WNW,290,0.0,0.0,87,0.00,,---,0.00,VWS V14.01,2013-05-31 09:10:00,
2013-05-31 02:15:00,48.3,44.6,29.94,WNW,290,0.0,0.0,87,0.00,,---,0.00,VWS V14.01,2013-05-31 09:15:00,
2013-05-31 02:20:00,48.2,44.5,29.94,WNW,290,0.0,0.0,87,0.00,,---,0.00,VWS V14.01,2013-05-31 09:20:00,
2013-05-31 02:25:00,48.2,44.5,29.94,WNW,290,0.0,0.0,87,0.00,,---,0.00,VWS V14.01,2013-05-31 09:25:00,
2013-05-31 02:30:00,48.2,44.5,29.94,WNW,290,0.0,0.0,87,0.00,,---,0.00,VWS V14.01,2013-05-31 09:30:00,
2013-05-31 02:35:00,48.2,44.5,29.94,WNW,290,0.0,0.0,87,0.00,,---,0.00,VWS V14.01,2013-05-31 09:35:00,
2013-05-31 02:40:00,48.0,44.3,29.94,WNW,290,0.0,0.0,87,0.00,,---,0.00,VWS V14.01,2013-05-31 09:40:00,
2013-05-31 02:45:00,48.0,44.6,29.94,WNW,290,0.0,0.0,88,0.00,,---,0.00,VWS V14.01,2013-05-31 09:45:00,
2013-05-31 02:51:00,47.9,44.5,29.95,WNW,290,0.0,0.0,88,0.00,,---,0.00,VWS V14.01,2013-05-31 09:51:00,
2013-05-31 02:56:00,48.0,44.6,29.95,WNW,290,0.0,0.0,88,0.00,,---,0.00,VWS V14.01,2013-05-31 09:56:00,
2013-05-31 03:01:00,48.0,44.6,29.95,WNW,290,0.0,0.0,88,0.00,,---,0.00,VWS V14.01,2013-05-31 10:01:00,
2013-05-31 03:06:00,48.0,44.6,29.95,WNW,290,0.0,0.0,88,0.00,,---,0.00,VWS V14.01,2013-05-31 10:06:00,
2013-05-31 03:11:00,48.0,44.6,29.95,WNW,290,0.0,0.0,88,0.00,,---,0.00,VWS V14.01,2013-05-31 10:11:00,
2013-05-31 03:16:00,48.0,44.6,29.95,WNW,290,0.0,0.0,88,0.00,,---,0.00,VWS V14.01,2013-05-31 10:16:00,
2013-05-31 03:21:00,48.0,44.6,29.95,WNW,290,0.0,0.0,88,0.00,,---,0.00,VWS V14.01,2013-05-31 10:21:00,
2013-05-31 03:26:00,48.2,45.1,29.95,WNW,290,0.0,0.0,89,0.00,,---,0.00,VWS V14.01,2013-05-31 10:26:00,
2013-05-31 03:31:00,48.2,45.1,29.95,WNW,290,0.0,0.0,89,0.00,,---,0.00,VWS V14.01,2013-05-31 10:31:00,
2013-05-31 03:36:00,48.0,44.9,29.95,WNW,290,0.0,0.0,89,0.00,,---,0.00,VWS V14.01,2013-05-31 10:36:00,
2013-05-31 03:41:00,47.9,44.8,29.95,WNW,290,0.0,0.0,89,0.00,,---,0.00,VWS V14.01,2013-05-31 10:41:00,
2013-05-31 03:46:00,47.7,44.6,29.95,WNW,290,0.0,0.0,89,0.00,,---,0.00,VWS V14.01,2013-05-31 10:46:00,
2013-05-31 03:51:00,47.7,44.6,29.94,WNW,290,0.0,0.0,89,0.00,,---,0.00,VWS V14.01,2013-05-31 10:51:00,
2013-05-31 03:56:00,47.6,44.5,29.94,WNW,290,0.0,0.0,89,0.00,,---,0.00,VWS V14.01,2013-05-31 10:56:00,
2013-05-31 04:01:00,47.4,44.3,29.94,WNW,290,0.0,0.0,89,0.00,,---,0.00,VWS V14.01,2013-05-31 11:01:00,
2013-05-31 04:06:00,47.3,44.2,29.94,WNW,290,0.0,0.0,89,0.00,,---,0.00,VWS V14.01,2013-05-31 11:06:00,
2013-05-31 04:11:00,47.1,44.0,29.94,WNW,290,0.0,0.0,89,0.00,,---,0.00,VWS V14.01,2013-05-31 11:11:00,
2013-05-31 04:17:00,47.0,43.9,29.94,WNW,290,0.0,0.0,89,0.00,,---,0.00,VWS V14.01,2013-05-31 11:17:00,
2013-05-31 04:22:00,46.8,43.7,29.94,WNW,290,0.0,0.0,89,0.00,,---,0.00,VWS V14.01,2013-05-31 11:22:00,
2013-05-31 04:27:00,46.5,43.4,29.94,WNW,290,0.0,0.0,89,0.00,,---,0.00,VWS V14.01,2013-05-31 11:27:00,
2013-05-31 04:32:00,46.4,43.6,29.94,WNW,290,0.0,0.0,90,0.00,,---,0.00,VWS V14.01,2013-05-31 11:32:00,
2013-05-31 04:37:00,46.2,43.4,29.94,WNW,290,0.0,0.0,90,0.00,,---,0.00,VWS V14.01,2013-05-31 11:37:00,
2013-05-31 04:42:00,46.1,43.3,29.94,WNW,290,0.0,0.0,90,0.00,,---,0.00,VWS V14.01,2013-05-31 11:42:00,
2013-05-31 04:47:00,46.1,43.6,29.94,WNW,290,0.0,0.0,91,0.00,,---,0.00,VWS V14.01,2013-05-31 11:47:00,
2013-05-31 04:52:00,46.1,43.6,29.94,WNW,290,0.0,0.0,91,0.00,,---,0.00,VWS V14.01,2013-05-31 11:52:00,
2013-05-31 04:57:00,46.0,43.5,29.94,WNW,290,0.0,0.0,91,0.00,,---,0.00,VWS V14.01,2013-05-31 11:57:00,
2013-05-31 05:02:00,46.1,43.6,29.94,WNW,290,0.0,0.0,91,0.00,,---,0.00,VWS V14.01,2013-05-31 12:02:00,
2013-05-31 05:07:00,46.1,43.6,29.94,WNW,290,0.0,0.0,91,0.00,,---,0.00,VWS V14.01,2013-05-31 12:07:00,
2013-05-31 05:12:00,46.0,43.8,29.94,WNW,290,0.0,0.0,92,0.00,,---,0.00,VWS V14.01,2013-05-31 12:12:00,
2013-05-31 05:17:00,46.0,43.8,29.94,WNW,290,0.0,0.0,92,0.00,,---,0.00,VWS V14.01,2013-05-31 12:17:00,
2013-05-31 05:22:00,46.0,43.8,29.94,WNW,290,0.0,0.0,92,0.00,,---,0.00,VWS V14.01,2013-05-31 12:22:00,
2013-05-31 05:28:00,46.0,43.8,29.94,WNW,290,0.0,0.0,92,0.00,,---,0.00,VWS V14.01,2013-05-31 12:28:00,
2013-05-31 05:33:00,46.0,43.8,29.94,WNW,290,0.0,0.0,92,0.00,,---,0.00,VWS V14.01,2013-05-31 12:33:00,
2013-05-31 05:38:00,46.0,43.8,29.94,WNW,290,0.0,0.0,92,0.00,,---,0.00,VWS V14.01,2013-05-31 12:38:00,
2013-05-31 05:43:00,46.0,43.8,29.94,WNW,290,0.0,0.0,92,0.00,,---,0.00,VWS V14.01,2013-05-31 12:43:00,
2013-05-31 05:48:00,45.8,43.6,29.94,WNW,290,0.0,0.0,92,0.00,,---,0.00,VWS V14.01,2013-05-31 12:48:00,
2013-05-31 05:53:00,45.7,43.5,29.94,WNW,290,0.0,0.0,92,0.00,,---,0.00,VWS V14.01,2013-05-31 12:53:00,
2013-05-31 05:58:00,45.7,43.5,29.94,WNW,290,0.0,0.0,92,0.00,,---,0.00,VWS V14.01,2013-05-31 12:58:00,
2013-05-31 06:03:00,45.5,43.3,29.94,WNW,290,0.0,0.0,92,0.00,,---,0.00,VWS V14.01,2013-05-31 13:03:00,
2013-05-31 06:08:00,45.5,43.3,29.94,WNW,290,0.0,0.0,92,0.00,,---,0.00,VWS V14.01,2013-05-31 13:08:00,
2013-05-31 06:13:00,45.5,43.6,29.94,WNW,290,0.0,0.0,93,0.00,,---,0.00,VWS V14.01,2013-05-31 13:13:00,
2013-05-31 06:18:00,45.7,43.8,29.94,WNW,290,0.0,0.0,93,0.00,,---,0.00,VWS V14.01,2013-05-31 13:18:00,
2013-05-31 06:23:00,46.1,44.2,29.94,WNW,290,0.0,0.0,93,0.00,,---,0.00,VWS V14.01,2013-05-31 13:23:00,
2013-05-31 06:28:00,46.5,44.6,29.94,WNW,290,0.0,0.0,93,0.00,,---,0.00,VWS V14.01,2013-05-31 13:28:00,
2013-05-31 06:33:00,47.0,45.1,29.94,WNW,290,0.0,0.0,93,0.00,,---,0.00,VWS V14.01,2013-05-31 13:33:00,
2013-05-31 06:38:00,47.6,46.0,29.94,NNW,329,0.0,2.0,94,0.00,,---,0.00,VWS V14.01,2013-05-31 13:38:00,
2013-05-31 06:43:00,48.6,46.7,29.94,NNW,329,0.0,2.0,93,0.00,,---,0.00,VWS V14.01,2013-05-31 13:43:00,
2013-05-31 06:48:00,49.2,47.0,29.94,NNW,329,0.0,2.0,92,0.00,,---,0.00,VWS V14.01,2013-05-31 13:48:00,
2013-05-31 06:53:00,49.9,47.4,29.94,NNW,329,0.0,2.0,91,0.00,,---,0.00,VWS V14.01,2013-05-31 13:53:00,
2013-05-31 06:58:00,50.4,47.3,29.94,NNW,329,0.0,2.0,89,0.00,,---,0.00,VWS V14.01,2013-05-31 13:58:00,
2013-05-31 07:03:00,50.8,47.1,29.95,West,271,0.0,2.0,87,0.00,,---,0.00,VWS V14.01,2013-05-31 14:03:00,
2013-05-31 07:08:00,51.6,47.9,29.95,West,271,0.0,0.0,87,0.00,,---,0.00,VWS V14.01,2013-05-31 14:08:00,
2013-05-31 07:13:00,52.6,48.2,29.95,West,273,0.0,0.0,85,0.00,,---,0.00,VWS V14.01,2013-05-31 14:13:00,
2013-05-31 07:18:00,53.6,48.2,29.96,West,273,0.0,0.0,82,0.00,,---,0.00,VWS V14.01,2013-05-31 14:18:00,
2013-05-31 07:23:00,54.8,48.1,29.96,West,273,0.0,0.0,78,0.00,,---,0.00,VWS V14.01,2013-05-31 14:23:00,
2013-05-31 07:28:00,55.4,47.6,29.96,West,273,0.0,0.0,75,0.00,,---,0.00,VWS V14.01,2013-05-31 14:28:00,
2013-05-31 07:33:00,55.7,48.3,29.97,West,273,0.0,0.0,76,0.00,,---,0.00,VWS V14.01,2013-05-31 14:33:00,
2013-05-31 07:38:00,56.2,48.4,29.97,West,273,0.0,0.0,75,0.00,,---,0.00,VWS V14.01,2013-05-31 14:38:00,
2013-05-31 07:43:00,56.9,48.0,29.97,West,273,0.0,0.0,72,0.00,,---,0.00,VWS V14.01,2013-05-31 14:43:00,
2013-05-31 07:48:00,57.8,48.1,29.96,NW,316,0.0,1.0,70,0.00,,---,0.00,VWS V14.01,2013-05-31 14:48:00,
2013-05-31 07:54:00,58.6,48.1,29.96,NW,316,0.0,1.0,68,0.00,,---,0.00,VWS V14.01,2013-05-31 14:54:00,
2013-05-31 07:59:00,58.9,48.0,29.96,NNW,327,0.0,1.0,67,0.00,,---,0.00,VWS V14.01,2013-05-31 14:59:00,
2013-05-31 08:04:00,59.0,48.1,29.96,ENE,61,3.0,4.0,67,0.00,,---,0.00,VWS V14.01,2013-05-31 15:04:00,
2013-05-31 08:09:00,59.3,48.0,29.96,ENE,71,3.0,6.0,66,0.00,,---,0.00,VWS V14.01,2013-05-31 15:09:00,
2013-05-31 08:14:00,59.5,48.2,29.96,East,79,3.0,6.0,66,0.00,,---,0.00,VWS V14.01,2013-05-31 15:14:00,
2013-05-31 08:19:00,59.9,48.1,29.96,NE,53,1.0,6.0,65,0.00,,---,0.00,VWS V14.01,2013-05-31 15:19:00,
2013-05-31 08:24:00,60.2,48.4,29.96,ENE,72,2.0,6.0,65,0.00,,---,0.00,VWS V14.01,2013-05-31 15:24:00,
2013-05-31 08:29:00,60.5,48.3,29.96,ENE,65,2.0,6.0,64,0.00,,---,0.00,VWS V14.01,2013-05-31 15:29:00,
2013-05-31 08:34:00,61.0,48.3,29.96,ENE,58,0.0,0.0,63,0.00,,---,0.00,VWS V14.01,2013-05-31 15:34:00,
2013-05-31 08:39:00,61.5,48.4,29.96,NE,44,1.0,1.0,62,0.00,,---,0.00,VWS V14.01,2013-05-31 15:39:00,
2013-05-31 08:44:00,62.3,49.6,29.96,NE,40,1.0,2.0,63,0.00,,---,0.00,VWS V14.01,2013-05-31 15:44:00,
2013-05-31 08:49:00,62.7,49.1,29.96,North,355,0.0,3.0,61,0.00,,---,0.00,VWS V14.01,2013-05-31 15:49:00,
2013-05-31 08:54:00,63.2,49.1,29.96,NE,39,5.0,5.0,60,0.00,,---,0.00,VWS V14.01,2013-05-31 15:54:00,
2013-05-31 08:59:00,63.7,49.6,29.96,NNE,23,0.0,5.0,60,0.00,,---,0.00,VWS V14.01,2013-05-31 15:59:00,
2013-05-31 09:04:00,64.2,49.6,29.96,North,11,2.0,3.0,59,0.00,,---,0.00,VWS V14.01,2013-05-31 16:04:00,
2013-05-31 09:09:00,64.5,49.0,29.96,NE,40,0.0,6.0,57,0.00,,---,0.00,VWS V14.01,2013-05-31 16:09:00,
2013-05-31 09:14:00,64.3,48.8,29.96,NE,44,0.0,7.0,57,0.00,,---,0.00,VWS V14.01,2013-05-31 16:14:00,
2013-05-31 09:19:00,64.8,49.2,29.96,ENE,61,4.0,7.0,57,0.00,,---,0.00,VWS V14.01,2013-05-31 16:19:00,
2013-05-31 09:24:00,65.0,48.9,29.96,NE,36,0.0,7.0,56,0.00,,---,0.00,VWS V14.01,2013-05-31 16:24:00,
2013-05-31 09:29:00,65.3,48.7,29.96,NNW,333,0.0,7.0,55,0.00,,---,0.00,VWS V14.01,2013-05-31 16:29:00,
2013-05-31 09:34:00,65.8,49.2,29.96,NNE,33,3.0,4.0,55,0.00,,---,0.00,VWS V14.01,2013-05-31 16:34:00,
2013-05-31 09:39:00,66.4,49.8,29.96,NNE,15,0.0,4.0,55,0.00,,---,0.00,VWS V14.01,2013-05-31 16:39:00,
2013-05-31 09:44:00,67.3,49.6,29.96,NNE,24,0.0,4.0,53,0.00,,---,0.00,VWS V14.01,2013-05-31 16:44:00,
2013-05-31 09:50:00,67.9,49.7,29.96,ENE,69,0.0,4.0,52,0.00,,---,0.00,VWS V14.01,2013-05-31 16:50:00,
2013-05-31 09:55:00,68.3,49.5,29.96,North,355,0.0,4.0,51,0.00,,---,0.00,VWS V14.01,2013-05-31 16:55:00,
2013-05-31 10:00:00,68.8,50.0,29.96,North,355,0.0,4.0,51,0.00,,---,0.00,VWS V14.01,2013-05-31 17:00:00,
2013-05-31 10:05:00,69.6,49.6,29.95,North,355,0.0,0.0,49,0.00,,---,0.00,VWS V14.01,2013-05-31 17:05:00,
2013-05-31 10:10:00,70.3,49.1,29.95,North,351,0.0,4.0,47,0.00,,---,0.00,VWS V14.01,2013-05-31 17:10:00,
2013-05-31 10:15:00,71.1,49.3,29.95,NW,315,0.0,4.0,46,0.00,,---,0.00,VWS V14.01,2013-05-31 17:15:00,
2013-05-31 10:20:00,72.0,48.9,29.95,NW,313,0.0,4.0,44,0.00,,---,0.00,VWS V14.01,2013-05-31 17:20:00,
2013-05-31 10:25:00,73.0,49.8,29.95,NNW,340,0.0,4.0,44,0.00,,---,0.00,VWS V14.01,2013-05-31 17:25:00,
2013-05-31 10:30:00,73.2,50.0,29.95,NNW,338,0.0,4.0,44,0.00,,---,0.00,VWS V14.01,2013-05-31 17:30:00,
2013-05-31 10:35:00,73.2,50.0,29.95,NNE,27,0.0,0.0,44,0.00,,---,0.00,VWS V14.01,2013-05-31 17:35:00,
2013-05-31 10:40:00,73.5,50.3,29.95,North,5,0.0,1.0,44,0.00,,---,0.00,VWS V14.01,2013-05-31 17:40:00,
2013-05-31 10:45:00,73.9,50.6,29.95,North,350,0.0,1.0,44,0.00,,---,0.00,VWS V14.01,2013-05-31 17:45:00,
2013-05-31 10:50:00,74.6,51.3,29.94,North,351,2.0,5.0,44,0.00,,---,0.00,VWS V14.01,2013-05-31 17:50:00,
2013-05-31 10:55:00,74.7,50.7,29.94,North,5,0.0,5.0,43,0.00,,---,0.00,VWS V14.01,2013-05-31 17:55:00,
2013-05-31 11:00:00,74.9,50.9,29.94,NNW,347,0.0,5.0,43,0.00,,---,0.00,VWS V14.01,2013-05-31 18:00:00,
2013-05-31 11:05:00,75.4,50.1,29.95,NNW,347,0.0,0.0,41,0.00,,---,0.00,VWS V14.01,2013-05-31 18:05:00,
2013-05-31 11:10:00,75.8,51.1,29.95,North,349,0.0,0.0,42,0.00,,---,0.00,VWS V14.01,2013-05-31 18:10:00,
2013-05-31 11:15:00,76.3,50.9,29.95,NW,324,0.0,0.0,41,0.00,,---,0.00,VWS V14.01,2013-05-31 18:15:00,
2013-05-31 11:20:00,76.5,50.4,29.94,NW,320,1.0,2.0,40,0.00,,---,0.00,VWS V14.01,2013-05-31 18:20:00,
2013-05-31 11:25:00,77.0,50.9,29.94,NNW,327,0.0,6.0,40,0.00,,---,0.00,VWS V14.01,2013-05-31 18:25:00,
2013-05-31 11:30:00,77.2,51.7,29.94,North,351,0.0,6.0,41,0.00,,---,0.00,VWS V14.01,2013-05-31 18:30:00,
2013-05-31 11:35:00,77.6,52.1,29.94,NNW,346,0.0,5.0,41,0.00,,---,0.00,VWS V14.01,2013-05-31 18:35:00,
2013-05-31 11:40:00,78.6,53.6,29.94,West,277,0.0,6.0,42,0.00,,---,0.00,VWS V14.01,2013-05-31 18:40:00,
2013-05-31 11:45:00,78.5,53.5,29.94,NNW,333,0.0,6.0,42,0.00,,---,0.00,VWS V14.01,2013-05-31 18:45:00,
2013-05-31 11:50:00,78.8,53.8,29.95,NW,309,0.0,6.0,42,0.00,,---,0.00,VWS V14.01,2013-05-31 18:50:00,
2013-05-31 11:55:00,79.4,54.3,29.95,WSW,253,0.0,6.0,42,0.00,,---,0.00,VWS V14.01,2013-05-31 18:55:00,
2013-05-31 12:00:00,79.6,55.2,29.95,WNW,298,3.0,6.0,43,0.00,,---,0.00,VWS V14.01,2013-05-31 19:00:00,
2013-05-31 12:06:00,79.2,54.8,29.95,NW,323,1.0,4.0,43,0.00,,---,0.00,VWS V14.01,2013-05-31 19:06:00,
2013-05-31 12:11:00,79.2,55.4,29.95,West,281,1.0,4.0,44,0.00,,---,0.00,VWS V14.01,2013-05-31 19:11:00,
2013-05-31 12:16:00,79.4,55.0,29.95,WNW,302,0.0,6.0,43,0.00,,---,0.00,VWS V14.01,2013-05-31 19:16:00,
2013-05-31 12:21:00,79.6,54.5,29.94,West,269,0.0,7.0,42,0.00,,---,0.00,VWS V14.01,2013-05-31 19:21:00,
2013-05-31 12:26:00,79.8,54.0,29.94,WNW,284,3.0,7.0,41,0.00,,---,0.00,VWS V14.01,2013-05-31 19:26:00,
2013-05-31 12:31:00,79.6,53.8,29.94,WSW,248,0.0,7.0,41,0.00,,---,0.00,VWS V14.01,2013-05-31 19:31:00,
2013-05-31 12:36:00,79.4,53.0,29.94,West,269,1.0,6.0,40,0.00,,---,0.00,VWS V14.01,2013-05-31 19:36:00,
2013-05-31 12:41:00,79.4,53.7,29.94,WSW,257,1.0,6.0,41,0.00,,---,0.00,VWS V14.01,2013-05-31 19:41:00,
2013-05-31 12:46:00,80.1,53.6,29.94,West,278,0.0,6.0,40,0.00,,---,0.00,VWS V14.01,2013-05-31 19:46:00,
2013-05-31 12:51:00,80.1,52.9,29.94,NNW,344,2.0,8.0,39,0.00,,---,0.00,VWS V14.01,2013-05-31 19:51:00,
2013-05-31 12:56:00,79.2,53.5,29.94,NW,319,4.0,8.0,41,0.00,,---,0.00,VWS V14.01,2013-05-31 19:56:00,
2013-05-31 13:01:00,78.6,53.0,29.94,WNW,282,0.0,8.0,41,0.00,,---,0.00,VWS V14.01,2013-05-31 20:01:00,
2013-05-31 13:06:00,78.1,53.2,29.94,NNW,336,0.0,7.0,42,0.00,,---,0.00,VWS V14.01,2013-05-31 20:06:00,
2013-05-31 13:11:00,78.3,53.3,29.94,NW,304,0.0,10.0,42,0.00,,---,0.00,VWS V14.01,2013-05-31 20:11:00,
2013-05-31 13:16:00,79.2,52.8,29.94,WNW,298,2.0,10.0,40,0.00,,---,0.00,VWS V14.01,2013-05-31 20:16:00,
2013-05-31 13:21:00,79.2,52.8,29.93,NW,320,0.0,10.0,40,0.00,,---,0.00,VWS V14.01,2013-05-31 20:21:00,
2013-05-31 13:26:00,78.6,53.0,29.93,West,277,0.0,10.0,41,0.00,,---,0.00,VWS V14.01,2013-05-31 20:26:00,
2013-05-31 13:31:00,78.5,52.9,29.93,WSW,254,0.0,10.0,41,0.00,,---,0.00,VWS V14.01,2013-05-31 20:31:00,
2013-05-31 13:36:00,79.6,51.8,29.93,West,280,0.0,5.0,38,0.00,,---,0.00,VWS V14.01,2013-05-31 20:36:00,
2013-05-31 13:41:00,80.5,51.1,29.93,West,274,0.0,8.0,36,0.00,,---,0.00,VWS V14.01,2013-05-31 20:41:00,
2013-05-31 13:46:00,80.9,50.7,29.93,SW,229,0.0,8.0,35,0.00,,---,0.00,VWS V14.01,2013-05-31 20:46:00,
2013-05-31 13:51:00,80.7,51.3,29.92,WSW,255,1.0,8.0,36,0.00,,---,0.00,VWS V14.01,2013-05-31 20:51:00,
2013-05-31 13:57:00,80.9,50.7,29.92,WSW,250,0.0,8.0,35,0.00,,---,0.00,VWS V14.01,2013-05-31 20:57:00,
2013-05-31 14:02:00,80.7,51.3,29.92,West,272,0.0,8.0,36,0.00,,---,0.00,VWS V14.01,2013-05-31 21:02:00,
2013-05-31 14:07:00,81.2,50.2,29.92,NW,316,0.0,5.0,34,0.00,,---,0.00,VWS V14.01,2013-05-31 21:07:00,
2013-05-31 14:12:00,81.4,51.2,29.92,WSW,242,1.0,5.0,35,0.00,,---,0.00,VWS V14.01,2013-05-31 21:12:00,
2013-05-31 14:17:00,80.5,51.1,29.92,South,184,0.0,6.0,36,0.00,,---,0.00,VWS V14.01,2013-05-31 21:17:00,
2013-05-31 14:22:00,79.9,51.3,29.91,SSW,196,0.0,6.0,37,0.00,,---,0.00,VWS V14.01,2013-05-31 21:22:00,
2013-05-31 14:27:00,80.5,50.4,29.91,WSW,248,2.0,6.0,35,0.00,,---,0.00,VWS V14.01,2013-05-31 21:27:00,
2013-05-31 14:32:00,81.1,49.3,29.91,WSW,242,1.0,7.0,33,0.00,,---,0.00,VWS V14.01,2013-05-31 21:32:00,
2013-05-31 14:37:00,81.2,47.7,29.91,SW,234,0.0,4.0,31,0.00,,---,0.00,VWS V14.01,2013-05-31 21:37:00,
2013-05-31 14:42:00,81.6,48.1,29.91,SW,227,5.0,7.0,31,0.00,,---,0.00,VWS V14.01,2013-05-31 21:42:00,
2013-05-31 14:47:00,82.2,48.6,29.91,WSW,245,5.0,8.0,31,0.00,,---,0.00,VWS V14.01,2013-05-31 21:47:00,
2013-05-31 14:52:00,82.8,48.2,29.90,WSW,252,2.0,8.0,30,0.00,,---,0.00,VWS V14.01,2013-05-31 21:52:00,
2013-05-31 14:57:00,82.8,49.1,29.90,SSW,210,0.0,8.0,31,0.00,,---,0.00,VWS V14.01,2013-05-31 21:57:00,
2013-05-31 15:02:00,83.0,49.3,29.90,WSW,240,0.0,8.0,31,0.00,,---,0.00,VWS V14.01,2013-05-31 22:02:00,
2013-05-31 15:07:00,83.6,49.8,29.90,WSW,254,0.0,3.0,31,0.00,,---,0.00,VWS V14.01,2013-05-31 22:07:00,
2013-05-31 15:12:00,84.0,50.2,29.90,SW,236,6.0,6.0,31,0.00,,---,0.00,VWS V14.01,2013-05-31 22:12:00,
2013-05-31 15:17:00,83.4,49.6,29.90,WSW,254,0.0,7.0,31,0.00,,---,0.00,VWS V14.01,2013-05-31 22:17:00,
2013-05-31 15:22:00,83.4,48.8,29.90,SW,221,0.0,7.0,30,0.00,,---,0.00,VWS V14.01,2013-05-31 22:22:00,
2013-05-31 15:27:00,82.6,49.8,29.90,West,272,5.0,12.0,32,0.00,,---,0.00,VWS V14.01,2013-05-31 22:27:00,
2013-05-31 15:32:00,82.0,49.3,29.90,WSW,238,2.0,12.0,32,0.00,,---,0.00,VWS V14.01,2013-05-31 22:32:00,
2013-05-31 15:37:00,82.4,49.6,29.89,SW,228,4.0,9.0,32,0.00,,---,0.00,VWS V14.01,2013-05-31 22:37:00,
2013-05-31 15:42:00,81.6,51.3,29.89,WSW,238,1.0,10.0,35,0.00,,---,0.00,VWS V14.01,2013-05-31 22:42:00,
2013-05-31 15:47:00,81.2,52.5,29.89,SSW,212,1.0,10.0,37,0.00,,---,0.00,VWS V14.01,2013-05-31 22:47:00,
2013-05-31 15:53:00,81.6,52.1,29.89,WSW,257,0.0,10.0,36,0.00,,---,0.00,VWS V14.01,2013-05-31 22:53:00,
2013-05-31 15:58:00,82.4,52.0,29.89,SW,235,0.0,10.0,35,0.00,,---,0.00,VWS V14.01,2013-05-31 22:58:00,
2013-05-31 16:03:00,82.8,52.4,29.89,WSW,248,0.0,10.0,35,0.00,,---,0.00,VWS V14.01,2013-05-31 23:03:00,
2013-05-31 16:08:00,81.8,50.7,29.89,SW,236,4.0,6.0,34,0.00,,---,0.00,VWS V14.01,2013-05-31 23:08:00,
2013-05-31 16:13:00,81.4,50.4,29.89,SSW,196,0.0,6.0,34,0.00,,---,0.00,VWS V14.01,2013-05-31 23:13:00,
2013-05-31 16:18:00,81.4,50.4,29.89,WSW,254,0.0,6.0,34,0.00,,---,0.00,VWS V14.01,2013-05-31 23:18:00,
2013-05-31 16:23:00,82.0,50.9,29.89,WSW,255,0.0,6.0,34,0.00,,---,0.00,VWS V14.01,2013-05-31 23:23:00,
2013-05-31 16:28:00,82.4,51.2,29.89,West,271,0.0,6.0,34,0.00,,---,0.00,VWS V14.01,2013-05-31 23:28:00,
2013-05-31 16:33:00,82.2,51.1,29.89,WSW,257,3.0,6.0,34,0.00,,---,0.00,VWS V14.01,2013-05-31 23:33:00,
2013-05-31 16:38:00,82.2,51.8,29.89,WNW,287,0.0,6.0,35,0.00,,---,0.00,VWS V14.01,2013-05-31 23:38:00,
2013-05-31 16:43:00,82.4,52.0,29.89,WNW,286,1.0,6.0,35,0.00,,---,0.00,VWS V14.01,2013-05-31 23:43:00,
2013-05-31 16:48:00,81.8,52.3,29.89,West,268,5.0,8.0,36,0.00,,---,0.00,VWS V14.01,2013-05-31 23:48:00,
2013-05-31 16:53:00,81.1,52.4,29.89,WNW,290,0.0,8.0,37,0.00,,---,0.00,VWS V14.01,2013-05-31 23:53:00,
2013-05-31 16:58:00,80.7,52.8,29.89,WNW,290,0.0,8.0,38,0.00,,---,0.00,VWS V14.01,2013-05-31 23:58:00,
2013-05-31 17:03:00,80.3,52.4,29.89,West,275,3.0,8.0,38,0.00,,---,0.00,VWS V14.01,2013-06-01 00:03:00,
2013-05-31 17:08:00,79.6,52.5,29.89,SSW,200,1.0,6.0,39,0.00,,---,0.00,VWS V14.01,2013-06-01 00:08:00,
2013-05-31 17:13:00,78.8,51.8,29.89,SSW,212,4.0,6.0,39,0.00,,---,0.00,VWS V14.01,2013-06-01 00:13:00,
2013-05-31 17:18:00,78.3,52.0,29.89,SW,219,1.0,6.0,40,0.00,,---,0.00,VWS V14.01,2013-06-01 00:18:00,
2013-05-31 17:23:00,77.6,51.4,29.89,SSW,204,3.0,6.0,40,0.00,,---,0.00,VWS V14.01,2013-06-01 00:23:00,
2013-05-31 17:28:00,77.0,51.5,29.89,SSW,195,4.0,6.0,41,0.00,,---,0.00,VWS V14.01,2013-06-01 00:28:00,
2013-05-31 17:33:00,76.5,51.7,29.88,WSW,238,0.0,8.0,42,0.00,,---,0.00,VWS V14.01,2013-06-01 00:33:00,
2013-05-31 17:38:00,76.5,52.4,29.88,SW,222,2.0,3.0,43,0.00,,---,0.00,VWS V14.01,2013-06-01 00:38:00,
2013-05-31 17:44:00,76.3,51.5,29.88,WSW,240,0.0,8.0,42,0.00,,---,0.00,VWS V14.01,2013-06-01 00:44:00,
2013-05-31 17:49:00,75.4,52.0,29.88,SW,216,3.0,8.0,44,0.00,,---,0.00,VWS V14.01,2013-06-01 00:49:00,
2013-05-31 17:53:00,74.9,51.5,29.88,SSW,208,2.0,8.0,44,0.00,,---,0.00,VWS V14.01,2013-06-01 00:53:00,
2013-05-31 17:58:00,74.0,51.9,29.88,SSW,208,5.0,9.0,46,0.00,,---,0.00,VWS V14.01,2013-06-01 00:58:00,
2013-05-31 18:03:00,73.2,51.8,29.88,SW,224,4.0,10.0,47,0.00,,---,0.00,VWS V14.01,2013-06-01 01:03:00,
2013-05-31 18:09:00,72.3,51.5,29.88,South,190,3.0,10.0,48,0.00,,---,0.00,VWS V14.01,2013-06-01 01:09:00,
2013-05-31 18:14:00,71.8,51.6,29.88,SSW,209,6.0,10.0,49,0.00,,---,0.00,VWS V14.01,2013-06-01 01:14:00,
2013-05-31 18:19:00,71.5,51.9,29.89,WSW,256,4.0,10.0,50,0.00,,---,0.00,VWS V14.01,2013-06-01 01:19:00,
2013-05-31 18:24:00,71.1,51.5,29.89,South,187,0.0,10.0,50,0.00,,---,0.00,VWS V14.01,2013-06-01 01:24:00,
2013-05-31 18:29:00,70.8,51.3,29.89,SW,217,0.0,10.0,50,0.00,,---,0.00,VWS V14.01,2013-06-01 01:29:00,
2013-05-31 18:34:00,70.4,51.4,29.89,South,188,0.0,0.0,51,0.00,,---,0.00,VWS V14.01,2013-06-01 01:34:00,
2013-05-31 18:39:00,70.3,51.9,29.89,SSW,213,0.0,5.0,52,0.00,,---,0.00,VWS V14.01,2013-06-01 01:39:00,
2013-05-31 18:44:00,70.3,51.3,29.89,SW,215,0.0,7.0,51,0.00,,---,0.00,VWS V14.01,2013-06-01 01:44:00,
2013-05-31 18:49:00,69.8,51.4,29.89,South,176,1.0,8.0,52,0.00,,---,0.00,VWS V14.01,2013-06-01 01:49:00,
2013-05-31 18:54:00,69.4,51.5,29.89,SW,215,2.0,8.0,53,0.00,,---,0.00,VWS V14.01,2013-06-01 01:54:00,
2013-05-31 18:59:00,68.9,51.6,29.89,SSW,209,0.0,9.0,54,0.00,,---,0.00,VWS V14.01,2013-06-01 01:59:00,
2013-05-31 19:04:00,68.4,51.1,29.89,South,175,0.0,0.0,54,0.00,,---,0.00,VWS V14.01,2013-06-01 02:04:00,
2013-05-31 19:09:00,67.9,51.2,29.89,SW,221,3.0,6.0,55,0.00,,---,0.00,VWS V14.01,2013-06-01 02:09:00,
2013-05-31 19:14:00,67.6,51.4,29.89,SW,215,0.0,6.0,56,0.00,,---,0.00,VWS V14.01,2013-06-01 02:14:00,
2013-05-31 19:19:00,67.3,51.1,29.89,WSW,257,2.0,6.0,56,0.00,,---,0.00,VWS V14.01,2013-06-01 02:19:00,
2013-05-31 19:24:00,67.1,50.9,29.89,SW,222,0.0,6.0,56,0.00,,---,0.00,VWS V14.01,2013-06-01 02:24:00,
2013-05-31 19:29:00,66.9,50.7,29.89,SW,214,0.0,6.0,56,0.00,,---,0.00,VWS V14.01,2013-06-01 02:29:00,
2013-05-31 19:34:00,66.6,50.9,29.89,South,186,0.0,0.0,57,0.00,,---,0.00,VWS V14.01,2013-06-01 02:34:00,
2013-05-31 19:39:00,66.1,50.4,29.89,SSW,197,0.0,3.0,57,0.00,,---,0.00,VWS V14.01,2013-06-01 02:39:00,
2013-05-31 19:44:00,65.6,50.4,29.89,SW,223,0.0,7.0,58,0.00,,---,0.00,VWS V14.01,2013-06-01 02:44:00,
2013-05-31 19:49:00,65.0,50.3,29.90,SSW,203,6.0,7.0,59,0.00,,---,0.00,VWS V14.01,2013-06-01 02:49:00,
2013-05-31 19:54:00,64.3,50.1,29.90,SSW,194,2.0,7.0,60,0.00,,---,0.00,VWS V14.01,2013-06-01 02:54:00,
2013-05-31 19:59:00,63.9,50.6,29.90,SW,234,0.0,7.0,62,0.00,,---,0.00,VWS V14.01,2013-06-01 02:59:00,
2013-05-31 20:04:00,63.2,50.0,29.90,SSW,211,6.0,6.0,62,0.00,,---,0.00,VWS V14.01,2013-06-01 03:04:00,
2013-05-31 20:09:00,62.4,50.1,29.90,SW,230,0.0,6.0,64,0.00,,---,0.00,VWS V14.01,2013-06-01 03:09:00,
2013-05-31 20:14:00,61.8,49.9,29.90,SSW,193,0.0,6.0,65,0.00,,---,0.00,VWS V14.01,2013-06-01 03:14:00,
2013-05-31 20:20:00,61.3,49.9,29.91,SSW,193,0.0,6.0,66,0.00,,---,0.00,VWS V14.01,2013-06-01 03:20:00,
2013-05-31 20:25:00,61.2,49.8,29.91,SSW,192,0.0,6.0,66,0.00,,---,0.00,VWS V14.01,2013-06-01 03:25:00,
2013-05-31 20:30:00,61.2,49.8,29.91,SSW,192,0.0,6.0,66,0.00,,---,0.00,VWS V14.01,2013-06-01 03:30:00,
2013-05-31 20:35:00,60.9,49.5,29.91,SSW,196,0.0,2.0,66,0.00,,---,0.00,VWS V14.01,2013-06-01 03:35:00,
2013-05-31 20:40:00,60.4,49.4,29.91,SSW,197,0.0,4.0,67,0.00,,---,0.00,VWS V14.01,2013-06-01 03:40:00,
2013-05-31 20:45:00,59.8,49.2,29.91,SSW,199,0.0,4.0,68,0.00,,---,0.00,VWS V14.01,2013-06-01 03:45:00,
2013-05-31 20:50:00,59.5,49.3,29.91,SSW,197,0.0,4.0,69,0.00,,---,0.00,VWS V14.01,2013-06-01 03:50:00,
2013-05-31 20:55:00,59.2,49.0,29.91,SSW,197,0.0,4.0,69,0.00,,---,0.00,VWS V14.01,2013-06-01 03:55:00,
2013-05-31 21:00:00,59.0,48.9,29.91,SSW,197,0.0,4.0,69,0.00,,---,0.00,VWS V14.01,2013-06-01 04:00:00,
2013-05-31 21:01:00,59.0,48.9,29.91,SSW,197,0.0,4.0,69,0.00,,---,0.00,VWS V14.01,2013-06-01 04:01:00,
2013-05-31 21:02:00,59.0,48.9,29.91,SSW,197,0.0,4.0,69,0.00,,---,0.00,VWS V14.01,2013-06-01 04:02:00,
2013-05-31 21:07:00,58.9,49.2,29.91,SSW,197,0.0,0.0,70,0.00,,---,0.00,VWS V14.01,2013-06-01 04:07:00,
2013-05-31 21:12:00,58.6,48.9,29.91,SSW,197,0.0,0.0,70,0.00,,---,0.00,VWS V14.01,2013-06-01 04:12:00,
2013-05-31 21:18:00,58.4,49.0,29.91,SSW,197,0.0,0.0,71,0.00,,---,0.00,VWS V14.01,2013-06-01 04:18:00,
2013-05-31 21:23:00,58.1,49.1,29.92,SSW,197,0.0,0.0,72,0.00,,---,0.00,VWS V14.01,2013-06-01 04:23:00,
2013-05-31 21:28:00,57.6,49.0,29.92,SSW,197,0.0,0.0,73,0.00,,---,0.00,VWS V14.01,2013-06-01 04:28:00,
2013-05-31 21:33:00,57.2,49.0,29.92,SSW,197,0.0,0.0,74,0.00,,---,0.00,VWS V14.01,2013-06-01 04:33:00,
2013-05-31 21:38:00,56.7,48.5,29.92,SSW,197,0.0,0.0,74,0.00,,---,0.00,VWS V14.01,2013-06-01 04:38:00,
2013-05-31 21:43:00,56.2,48.8,29.92,SSW,197,0.0,0.0,76,0.00,,---,0.00,VWS V14.01,2013-06-01 04:43:00,
2013-05-31 21:48:00,55.9,48.5,29.92,SSW,197,0.0,1.0,76,0.00,,---,0.00,VWS V14.01,2013-06-01 04:48:00,
2013-05-31 21:53:00,55.6,48.5,29.92,SSW,197,0.0,1.0,77,0.00,,---,0.00,VWS V14.01,2013-06-01 04:53:00,
2013-05-31 21:58:00,55.4,48.3,29.92,SSW,197,0.0,1.0,77,0.00,,---,0.00,VWS V14.01,2013-06-01 04:58:00,
2013-05-31 22:03:00,55.4,48.7,29.92,WSW,248,0.0,3.0,78,0.00,,---,0.00,VWS V14.01,2013-06-01 05:03:00,
2013-05-31 22:08:00,55.3,48.6,29.93,WSW,248,0.0,1.0,78,0.00,,---,0.00,VWS V14.01,2013-06-01 05:08:00,
2013-05-31 22:13:00,55.1,48.7,29.93,WSW,248,0.0,1.0,79,0.00,,---,0.00,VWS V14.01,2013-06-01 05:13:00,
2013-05-31 22:18:00,55.0,48.6,29.93,WSW,248,0.0,1.0,79,0.00,,---,0.00,VWS V14.01,2013-06-01 05:18:00,
2013-05-31 22:23:00,54.7,48.3,29.93,WSW,248,0.0,1.0,79,0.00,,---,0.00,VWS V14.01,2013-06-01 05:23:00,
2013-05-31 22:28:00,54.5,48.5,29.93,WSW,248,0.0,1.0,80,0.00,,---,0.00,VWS V14.01,2013-06-01 05:28:00,
2013-05-31 22:33:00,54.2,48.2,29.93,WSW,248,0.0,1.0,80,0.00,,---,0.00,VWS V14.01,2013-06-01 05:33:00,
2013-05-31 22:38:00,53.9,47.9,29.93,WSW,248,0.0,0.0,80,0.00,,---,0.00,VWS V14.01,2013-06-01 05:38:00,
2013-05-31 22:43:00,53.8,48.1,29.93,WSW,248,0.0,0.0,81,0.00,,---,0.00,VWS V14.01,2013-06-01 05:43:00,
2013-05-31 22:48:00,53.6,47.9,29.93,WSW,248,0.0,0.0,81,0.00,,---,0.00,VWS V14.01,2013-06-01 05:48:00,
2013-05-31 22:53:00,53.6,47.9,29.93,WSW,248,0.0,0.0,81,0.00,,---,0.00,VWS V14.01,2013-06-01 05:53:00,
2013-05-31 22:58:00,53.3,47.6,29.93,WSW,248,0.0,0.0,81,0.00,,---,0.00,VWS V14.01,2013-06-01 05:58:00,
2013-05-31 23:03:00,53.2,47.9,29.93,WSW,248,0.0,0.0,82,0.00,,---,0.00,VWS V14.01,2013-06-01 06:03:00,
2013-05-31 23:08:00,53.2,47.9,29.93,WSW,248,0.0,0.0,82,0.00,,---,0.00,VWS V14.01,2013-06-01 06:08:00,
2013-05-31 23:13:00,53.1,47.8,29.93,WSW,248,0.0,0.0,82,0.00,,---,0.00,VWS V14.01,2013-06-01 06:13:00,
2013-05-31 23:18:00,52.9,47.6,29.93,WSW,248,0.0,0.0,82,0.00,,---,0.00,VWS V14.01,2013-06-01 06:18:00,
2013-05-31 23:23:00,52.9,47.6,29.93,WSW,248,0.0,0.0,82,0.00,,---,0.00,VWS V14.01,2013-06-01 06:23:00,
2013-05-31 23:29:00,52.8,47.5,29.93,WSW,248,0.0,0.0,82,0.00,,---,0.00,VWS V14.01,2013-06-01 06:29:00,
2013-05-31 23:34:00,52.8,47.5,29.92,WSW,248,0.0,0.0,82,0.00,,---,0.00,VWS V14.01,2013-06-01 06:34:00,
2013-05-31 23:39:00,52.8,47.8,29.92,WSW,248,0.0,0.0,83,0.00,,---,0.00,VWS V14.01,2013-06-01 06:39:00,
2013-05-31 23:44:00,52.6,47.6,29.92,WSW,248,0.0,0.0,83,0.00,,---,0.00,VWS V14.01,2013-06-01 06:44:00,
2013-05-31 23:49:00,52.5,47.5,29.92,WSW,248,0.0,0.0,83,0.00,,---,0.00,VWS V14.01,2013-06-01 06:49:00,
2013-05-31 23:54:00,52.5,47.5,29.92,WSW,248,0.0,0.0,83,0.00,,---,0.00,VWS V14.01,2013-06-01 06:54:00,
2013-05-31 23:59:00,52.5,47.5,29.92,WSW,248,0.0,0.0,83,0.00,,---,0.00,VWS V14.01,2013-06-01 06:59:00,